Wednesday, November 22, 2017, 11:39 AM EST
Back to Local

KROC, Greater Rochester International

Location: Rochester, NY, United States Lat: 43.117
Local Time: 11:39 AM EST (16:39 GMT) Lon: -77.683
Time Zone: US/Eastern Elev: 557 ft

Show me the last for .
Show Decoded

2017-11-22 11:22 METAR KROC 221622Z 31013G19KT 10SM OVC025 01/M03 A3010 RMK AO2 SNE03 P0000
                 T00111028 =
2017-11-22 10:54 METAR KROC 221554Z 32015G20KT 9SM -SN SCT025 OVC036 02/M02 A3010 RMK AO2 SNB17
                 SLP202 PCPN VRY LGT P0000 T00171022 =
2017-11-22 09:54 METAR KROC 221454Z 32008G19KT 9SM FEW021 BKN030 OVC041 02/M01 A3009 RMK AO2
                 SNE49 SLP197 P0000 60000 T00171011 51023 =
2017-11-22 08:54 METAR KROC 221354Z 28009KT 10SM -SN FEW027 BKN040 OVC060 02/00 A3008 RMK AO2
                 SNB31 SLP193 PCPN VRY LGT P0000 T00220000 =
2017-11-22 07:54 METAR KROC 221254Z 29009KT 10SM FEW017 BKN050 OVC065 02/01 A3006 RMK AO2 SLP187
                 T00220006 =
2017-11-22 06:54 METAR KROC 221154Z 28006KT 10SM FEW007 BKN030 OVC055 02/02 A3002 RMK AO2
                 DZE29SNE29 SLP173 BINOVC P0000 60007 70007 T00170017 10050 20017 51023 =
2017-11-22 05:54 METAR KROC 221054Z 26004KT 9SM -SNDZ FEW007 OVC032 02/02 A3001 RMK AO2
                 RAE08DZB08 SLP169 P0002 T00170017 =
2017-11-22 05:12 METAR KROC 221012Z 30005KT 6SM -DZSN BR FEW007 SCT011 OVC021 02/02 A3000 RMK AO2
                 RAE08DZB08 P0001 T00170017 =
2017-11-22 04:54 METAR KROC 220954Z 31007KT 6SM -RASN BR BKN009 OVC019 02/02 A2999 RMK AO2 SLP162
                 P0003 T00220017 =
2017-11-22 03:54 METAR KROC 220854Z 32008KT 10SM -RASN OVC008 03/02 A2995 RMK AO2 SNB53 CIG
                 007V013 SLP149 P0002 60002 T00280022 53021 =
2017-11-22 02:54 METAR KROC 220754Z 33011G18KT 10SM -RA BKN008 OVC019 04/03 A2993 RMK AO2
                 DZE21RAB28 SLP140 P0000 T00390028 =
2017-11-22 02:25 METAR KROC 220725Z 30009KT 10SM BKN010 BKN044 OVC050 04/03 A2992 RMK AO2 DZE21
                 P0000 T00440028 =
2017-11-22 01:54 METAR KROC 220654Z 32009KT 10SM -DZ FEW010 BKN050 OVC110 04/03 A2991 RMK AO2
                 RAE03DZB47 SLP132 P0000 T00440033 =
2017-11-22 00:54 METAR KROC 220554Z 32010KT 10SM -RA FEW010 BKN049 OVC065 05/04 A2989 RMK AO2
                 RAB30 SLP128 P0000 60000 T00500039 10094 20050 51014 =
2017-11-22 00:25 METAR KROC 220525Z 30010KT 8SM FEW008 OVC060 06/05 A2989 RMK AO2 T00610050 =
2017-11-21 23:54 METAR KROC 220454Z 32007KT 10SM FEW015 OVC060 07/06 A2988 RMK AO2 RAB0357E42
                 SLP124 P0000 T00720056 401390039 =
2017-11-21 22:54 METAR KROC 220354Z 28005KT 10SM SCT037 BKN047 OVC060 08/01 A2986 RMK AO2 SLP116
                 T00830006 =
2017-11-21 21:54 METAR KROC 220254Z 21005KT 10SM OVC065 09/01 A2985 RMK AO2 SLP113 T00890011
                 50008 =
2017-11-21 20:54 METAR KROC 220154Z 24004KT 10SM OVC065 08/M01 A2986 RMK AO2 SLP116 BINOVC
                 T00831006 =
2017-11-21 19:54 METAR KROC 220054Z 33006KT 10SM BKN070 07/M02 A2984 RMK AO2 SLP112 T00671017 =
2017-11-21 18:54 METAR KROC 212354Z 00000KT 10SM BKN200 09/M02 A2983 RMK AO2 SLP106 T00891022
                 10139 20089 51016 =
2017-11-21 17:54 METAR KROC 212254Z 30005KT 10SM FEW160 BKN230 09/M02 A2982 RMK AO2 SLP104
                 T00891022 =
2017-11-21 16:54 METAR KROC 212154Z 22007KT 10SM FEW100 FEW160 BKN230 11/M02 A2980 RMK AO2 SLP096
                 T01111022 =
2017-11-21 15:54 METAR KROC 212054Z 23013KT 10SM FEW160 SCT230 13/M02 A2978 RMK AO2 PK WND
                 24029/2038 SLP088 T01281022 53017 =
2017-11-21 14:54 METAR KROC 211954Z 23018G25KT 10SM FEW160 SCT230 14/M03 A2975 RMK AO2 PK WND
                 24029/1924 SLP080 T01391028 =
2017-11-21 13:54 METAR KROC 211854Z 23021G32KT 10SM SCT160 SCT230 14/M04 A2974 RMK AO2 PK WND
                 23032/1850 SLP076 T01391039 =
2017-11-21 12:54 METAR KROC 211754Z 23020G31KT 10SM FEW180 SCT230 13/M05 A2973 RMK AO2 PK WND
                 23031/1747 SLP071 T01331050 10133 20050 58012 =
2017-11-21 11:54 METAR KROC 211654Z 22021G30KT 10SM FEW150 BKN230 12/M05 A2974 RMK AO2 PK WND
                 24033/1634 SLP076 T01221050 =

Support USWX by starting your Amazon purchase here.